Time;durP1;ratioP1;P1;durP2;ratioP2;P2;SDS_P1;SDS_P2;PMS_P1;PMS_P2;Temp;Humidity;BMP_temperature;BMP_pressure;BME280_temperature;BME280_humidity;BME280_pressure;Samples;Min_cycle;Max_cycle;Signal;HPM_P1;HPM_P2
2021/12/03 00:01:58;;;;;;;9.93;1.35;;;4.70;99.90;;;;;;4929777;29;20051;-78
2021/12/03 00:04:23;;;;;;;5.95;1.35;;;4.70;99.90;;;;;;4927200;29;20051;-78
2021/12/03 00:06:49;;;;;;;7.28;1.30;;;4.60;99.90;;;;;;4927262;29;20046;-78
2021/12/03 00:09:15;;;;;;;4.75;1.27;;;4.70;99.90;;;;;;4925770;29;20059;-79
2021/12/03 00:11:41;;;;;;;6.70;1.10;;;4.60;99.90;;;;;;4926068;29;20060;-78
2021/12/03 00:14:06;;;;;;;5.97;1.23;;;4.60;99.90;;;;;;4929845;29;20297;-78
2021/12/03 00:16:32;;;;;;;3.35;1.00;;;4.60;99.90;;;;;;4929454;29;20047;-79
2021/12/03 00:18:58;;;;;;;3.70;1.27;;;5.30;99.90;;;;;;4928792;29;20070;-79
2021/12/03 00:21:26;;;;;;;2.25;1.00;;;4.60;99.90;;;;;;4919081;29;20051;-78
2021/12/03 00:23:51;;;;;;;2.83;0.95;;;4.60;99.90;;;;;;4927033;29;20524;-78
2021/12/03 00:26:17;;;;;;;5.93;0.90;;;4.60;99.90;;;;;;4926792;28;20050;-78
2021/12/03 00:28:43;;;;;;;6.93;1.20;;;4.60;99.90;;;;;;4910530;29;20039;-78
2021/12/03 00:31:09;;;;;;;3.30;1.00;;;4.60;99.90;;;;;;4925683;29;20138;-79
2021/12/03 00:33:36;;;;;;;4.85;1.10;;;4.50;99.90;;;;;;4910221;29;20110;-77
2021/12/03 00:36:06;;;;;;;7.03;1.20;;;4.50;99.90;;;;;;4908838;29;20051;-77
2021/12/03 00:38:40;;;;;;;4.95;1.65;;;4.50;99.90;;;;;;4942021;29;20043;-80
2021/12/03 00:41:12;;;;;;;5.80;1.30;;;4.40;99.90;;;;;;4932825;29;20046;-78
2021/12/03 00:43:46;;;;;;;6.30;1.35;;;4.40;99.90;;;;;;4927719;29;20083;-79
2021/12/03 00:46:16;;;;;;;6.22;1.30;;;4.40;99.90;;;;;;4933823;29;20066;-78
2021/12/03 00:48:43;;;;;;;7.13;1.50;;;4.50;99.90;;;;;;4931088;29;20143;-79
2021/12/03 00:51:10;;;;;;;4.82;1.02;;;4.50;99.90;;;;;;4931689;29;20048;-79
2021/12/03 00:53:38;;;;;;;6.25;1.23;;;4.50;99.90;;;;;;4932852;29;20293;-79
2021/12/03 00:56:05;;;;;;;6.00;1.40;;;4.50;99.90;;;;;;4925911;29;20052;-78
2021/12/03 00:58:31;;;;;;;7.30;1.20;;;4.60;99.90;;;;;;4927225;29;20052;-77
2021/12/03 01:00:57;;;;;;;5.60;1.02;;;4.60;99.90;;;;;;4939786;29;20051;-79
2021/12/03 01:03:23;;;;;;;6.75;1.10;;;4.60;99.90;;;;;;4932990;29;20083;-78
2021/12/03 01:05:48;;;;;;;5.00;1.10;;;4.60;99.90;;;;;;4932781;29;20059;-79
2021/12/03 01:08:14;;;;;;;6.85;1.50;;;4.60;99.90;;;;;;4885676;29;20047;-78
2021/12/03 01:10:40;;;;;;;5.70;0.95;;;4.70;99.90;;;;;;4934930;29;20114;-79
2021/12/03 01:13:06;;;;;;;5.28;0.88;;;4.60;99.90;;;;;;4904028;29;20047;-78
2021/12/03 01:15:34;;;;;;;3.08;0.90;;;5.40;99.90;;;;;;4910788;29;20378;-79
2021/12/03 01:18:02;;;;;;;5.80;1.15;;;4.60;99.90;;;;;;4934675;29;20043;-78
2021/12/03 01:20:30;;;;;;;2.90;0.60;;;4.60;99.90;;;;;;4913570;29;20051;-79
2021/12/03 01:22:58;;;;;;;4.90;0.90;;;4.50;99.90;;;;;;4936829;29;20055;-80
2021/12/03 01:25:24;;;;;;;2.00;0.90;;;4.50;99.90;;;;;;4936790;29;20059;-79
2021/12/03 01:27:50;;;;;;;3.42;0.80;;;4.50;99.90;;;;;;4934774;29;20136;-79
2021/12/03 01:30:19;;;;;;;6.00;0.85;;;4.90;99.90;;;;;;4933558;29;20061;-79
2021/12/03 01:32:46;;;;;;;5.47;0.82;;;4.40;99.90;;;;;;4915069;29;20099;-78
2021/12/03 01:35:14;;;;;;;2.42;0.70;;;4.40;99.90;;;;;;4934971;29;20445;-78
2021/12/03 01:37:41;;;;;;;3.42;0.90;;;4.40;99.90;;;;;;4931357;29;20069;-78
2021/12/03 01:40:12;;;;;;;4.50;0.90;;;4.40;99.90;;;;;;4926668;29;20055;-79
2021/12/03 01:42:38;;;;;;;5.28;0.88;;;4.40;99.90;;;;;;4936217;29;20051;-79
2021/12/03 01:45:07;;;;;;;2.10;0.75;;;5.40;99.90;;;;;;4932648;29;20192;-78
2021/12/03 01:47:33;;;;;;;2.72;0.90;;;4.20;99.90;;;;;;4913222;29;20504;-79
2021/12/03 01:49:58;;;;;;;3.70;0.77;;;4.20;99.90;;;;;;4924605;29;20040;-78
2021/12/03 01:52:24;;;;;;;4.90;0.90;;;4.70;99.90;;;;;;4928763;29;20105;-79
2021/12/03 01:54:50;;;;;;;2.28;0.80;;;4.20;99.90;;;;;;4929544;29;20051;-80
2021/12/03 01:57:17;;;;;;;3.03;0.88;;;4.20;99.90;;;;;;4928161;29;20067;-79
2021/12/03 01:59:43;;;;;;;2.55;0.70;;;4.20;99.90;;;;;;4902317;29;20078;-79
2021/12/03 02:02:09;;;;;;;3.40;0.68;;;4.20;99.90;;;;;;4927306;29;20051;-79
2021/12/03 02:04:35;;;;;;;5.05;0.90;;;4.20;99.90;;;;;;4929222;29;20051;-79
2021/12/03 02:07:01;;;;;;;3.97;0.80;;;4.20;99.90;;;;;;4928127;29;20051;-79
2021/12/03 02:09:27;;;;;;;5.35;1.15;;;4.20;99.90;;;;;;4927044;29;20058;-79
2021/12/03 02:11:53;;;;;;;2.25;0.93;;;4.40;99.90;;;;;;4918379;29;20043;-78
2021/12/03 02:14:19;;;;;;;4.53;0.63;;;4.20;99.90;;;;;;4930371;29;20476;-78
2021/12/03 02:16:45;;;;;;;3.25;0.80;;;4.20;99.90;;;;;;4924109;29;20915;-80
2021/12/03 02:19:12;;;;;;;2.63;1.05;;;4.20;99.90;;;;;;4914058;29;20102;-78
2021/12/03 02:21:38;;;;;;;2.90;0.90;;;4.50;99.90;;;;;;4928828;29;20059;-78
2021/12/03 02:24:04;;;;;;;3.60;0.90;;;4.20;99.90;;;;;;4930646;29;20051;-78
2021/12/03 02:26:30;;;;;;;3.53;1.52;;;4.20;99.90;;;;;;4910247;29;20051;-78
2021/12/03 02:28:56;;;;;;;4.75;0.93;;;4.20;99.90;;;;;;4931885;29;20391;-79
2021/12/03 02:31:23;;;;;;;6.47;1.30;;;4.50;99.90;;;;;;4928243;29;20051;-81
2021/12/03 02:33:50;;;;;;;3.60;1.15;;;4.20;99.90;;;;;;4928960;29;20059;-79
2021/12/03 02:36:18;;;;;;;6.35;1.10;;;5.20;99.90;;;;;;4926719;29;20047;-78
2021/12/03 02:38:44;;;;;;;5.28;1.10;;;4.30;99.90;;;;;;4942050;29;20623;-79
2021/12/03 02:41:10;;;;;;;5.78;1.10;;;4.20;99.90;;;;;;4934148;29;20055;-78
2021/12/03 02:43:36;;;;;;;5.78;0.93;;;4.20;99.90;;;;;;4923828;29;20057;-79
2021/12/03 02:46:03;;;;;;;1.95;0.73;;;4.20;99.90;;;;;;4896156;29;20219;-79
2021/12/03 02:48:31;;;;;;;5.47;1.08;;;4.20;99.90;;;;;;4926249;29;20052;-79
2021/12/03 02:50:58;;;;;;;2.47;0.85;;;4.30;99.90;;;;;;4914947;29;20054;-78
2021/12/03 02:53:24;;;;;;;4.82;1.00;;;4.90;99.90;;;;;;4917330;29;20098;-80
2021/12/03 02:55:50;;;;;;;2.65;0.90;;;4.40;99.90;;;;;;4925598;29;20090;-79
2021/12/03 02:58:17;;;;;;;4.88;1.10;;;4.50;99.90;;;;;;4908549;29;20079;-79
2021/12/03 03:00:44;;;;;;;4.60;1.15;;;4.60;99.90;;;;;;4910584;29;20379;-79
2021/12/03 03:03:09;;;;;;;6.72;1.20;;;4.60;99.90;;;;;;4912504;29;20114;-80
2021/12/03 03:05:35;;;;;;;2.78;1.00;;;4.70;99.90;;;;;;4927429;29;20044;-79
2021/12/03 03:08:02;;;;;;;4.85;1.05;;;4.70;99.90;;;;;;4911526;29;20082;-78
2021/12/03 03:10:31;;;;;;;6.05;1.20;;;4.90;99.90;;;;;;4908947;29;20051;-79
2021/12/03 03:13:01;;;;;;;5.15;1.00;;;4.70;99.90;;;;;;4928033;29;20066;-79
2021/12/03 03:15:27;;;;;;;3.97;1.20;;;5.20;99.90;;;;;;4928356;29;20070;-81
2021/12/03 03:17:54;;;;;;;2.58;1.10;;;4.80;99.90;;;;;;4912567;29;20409;-79
2021/12/03 03:20:20;;;;;;;2.97;0.70;;;4.50;99.90;;;;;;4928082;29;20122;-79
2021/12/03 03:22:47;;;;;;;4.65;1.20;;;4.50;99.90;;;;;;4932478;29;20107;-79
2021/12/03 03:25:17;;;;;;;2.70;0.90;;;5.10;99.90;;;;;;4925975;29;20059;-79
2021/12/03 03:27:43;;;;;;;2.63;0.93;;;4.50;99.90;;;;;;4933809;29;20523;-79
2021/12/03 03:30:12;;;;;;;3.30;0.82;;;4.80;99.90;;;;;;4924282;29;20501;-78
2021/12/03 03:32:40;;;;;;;3.42;0.80;;;4.40;99.90;;;;;;4933996;29;20103;-79
2021/12/03 03:35:07;;;;;;;3.10;0.90;;;4.40;99.90;;;;;;4927938;29;20135;-78
2021/12/03 03:37:33;;;;;;;4.35;1.00;;;4.40;99.90;;;;;;4927358;29;20059;-79
2021/12/03 03:40:00;;;;;;;2.92;0.70;;;4.90;99.90;;;;;;4926464;29;20047;-79
2021/12/03 03:42:25;;;;;;;4.32;1.00;;;4.40;99.90;;;;;;4913477;29;20043;-81
2021/12/03 03:44:51;;;;;;;2.00;0.77;;;4.50;99.90;;;;;;4928012;29;20050;-79
2021/12/03 03:47:17;;;;;;;2.90;1.15;;;4.50;99.90;;;;;;4925380;29;20058;-78
2021/12/03 03:49:42;;;;;;;5.18;0.90;;;4.50;99.90;;;;;;4928771;29;20058;-79
2021/12/03 03:52:08;;;;;;;4.50;1.10;;;4.50;99.90;;;;;;4948091;29;20058;-79
2021/12/03 03:54:34;;;;;;;2.17;1.00;;;4.80;99.90;;;;;;4929097;29;20074;-79
2021/12/03 03:57:01;;;;;;;5.80;1.30;;;4.50;99.90;;;;;;4925041;29;20055;-79
2021/12/03 03:59:27;;;;;;;3.83;1.00;;;4.40;99.90;;;;;;4926515;29;20050;-81
2021/12/03 04:01:53;;;;;;;5.53;1.05;;;4.50;99.90;;;;;;4907513;29;20054;-79
2021/12/03 04:04:21;;;;;;;5.78;1.13;;;4.40;99.90;;;;;;4929581;29;20126;-78
2021/12/03 04:06:48;;;;;;;5.72;1.02;;;4.30;99.90;;;;;;4908173;29;20055;-78
2021/12/03 04:09:13;;;;;;;8.98;1.30;;;4.30;99.90;;;;;;4926631;29;20087;-79
2021/12/03 04:11:39;;;;;;;6.18;1.15;;;4.30;99.90;;;;;;4934551;29;20114;-78
2021/12/03 04:14:05;;;;;;;5.60;1.20;;;4.20;99.90;;;;;;4896757;29;20043;-77
2021/12/03 04:16:31;;;;;;;8.13;1.20;;;4.20;99.90;;;;;;4924645;29;20052;-79
2021/12/03 04:18:58;;;;;;;3.47;1.20;;;4.50;99.90;;;;;;4929710;29;20043;-79
2021/12/03 04:21:24;;;;;;;5.65;1.33;;;4.10;99.90;;;;;;4902373;29;20054;-78
2021/12/03 04:23:51;;;;;;;3.78;1.40;;;4.10;99.90;;;;;;4925829;29;20056;-78
2021/12/03 04:26:16;;;;;;;2.58;1.15;;;4.10;99.90;;;;;;4928781;29;20052;-78
2021/12/03 04:28:42;;;;;;;7.00;1.60;;;4.00;99.90;;;;;;4929759;29;20044;-78
2021/12/03 04:31:08;;;;;;;4.20;1.20;;;4.00;99.90;;;;;;4942745;29;20117;-79
2021/12/03 04:33:34;;;;;;;5.30;1.17;;;4.00;99.90;;;;;;4929041;29;20048;-78
2021/12/03 04:36:00;;;;;;;5.07;1.30;;;4.00;99.90;;;;;;4927895;29;20090;-78
2021/12/03 04:38:25;;;;;;;4.55;1.27;;;4.00;99.90;;;;;;4931721;29;20039;-79
2021/12/03 04:40:51;;;;;;;4.32;1.38;;;4.90;99.90;;;;;;4929249;29;20501;-79
2021/12/03 04:43:17;;;;;;;4.88;1.15;;;3.90;99.90;;;;;;4926563;29;20055;-77
2021/12/03 04:45:43;;;;;;;5.93;1.50;;;3.90;99.90;;;;;;4931685;29;20059;-78
2021/12/03 04:48:09;;;;;;;4.03;1.10;;;4.40;99.90;;;;;;4936158;29;20058;-79
2021/12/03 04:50:39;;;;;;;5.43;1.17;;;4.10;99.90;;;;;;4927739;29;20052;-78
2021/12/03 04:53:06;;;;;;;10.18;1.40;;;4.20;99.90;;;;;;4927589;29;20051;-78
2021/12/03 04:55:32;;;;;;;4.93;1.45;;;4.20;99.90;;;;;;4935138;29;20540;-81
2021/12/03 04:57:59;;;;;;;5.43;1.80;;;4.90;99.90;;;;;;4920272;29;20047;-79
2021/12/03 05:00:48;;;;;;;5.43;1.10;;;4.90;99.90;;;;;;4935151;29;20083;-79
2021/12/03 05:03:14;;;;;;;12.52;1.40;;;4.70;99.90;;;;;;4921273;29;20118;-78
2021/12/03 05:05:45;;;;;;;5.28;1.13;;;4.70;99.90;;;;;;4927766;29;20054;-79
2021/12/03 05:08:11;;;;;;;6.72;1.10;;;4.70;99.90;;;;;;4913972;29;20055;-79
2021/12/03 05:10:39;;;;;;;3.47;1.38;;;5.70;99.90;;;;;;4913314;29;20110;-79
2021/12/03 05:13:08;;;;;;;6.55;1.20;;;4.60;99.90;;;;;;4924701;29;20063;-79
2021/12/03 05:15:35;;;;;;;2.65;0.82;;;4.50;99.90;;;;;;4934996;29;20551;-79
2021/12/03 05:18:01;;;;;;;4.60;0.88;;;4.70;99.90;;;;;;4912672;29;20047;-79
2021/12/03 05:20:27;;;;;;;3.30;1.17;;;5.00;99.90;;;;;;4925962;29;20098;-80
2021/12/03 05:22:53;;;;;;;5.30;1.10;;;4.30;99.90;;;;;;4915163;29;20090;-78
2021/12/03 05:25:20;;;;;;;4.75;1.35;;;4.30;99.90;;;;;;4930468;29;20047;-80
2021/12/03 05:27:46;;;;;;;4.25;1.20;;;4.30;99.90;;;;;;4927641;29;20051;-79
2021/12/03 05:30:12;;;;;;;7.70;1.20;;;5.60;99.90;;;;;;4935798;29;20090;-79
2021/12/03 05:32:38;;;;;;;4.78;1.30;;;4.30;99.90;;;;;;4931396;29;20059;-80
2021/12/03 05:35:06;;;;;;;8.48;1.73;;;4.40;99.90;;;;;;4948169;28;20051;-78
2021/12/03 05:37:32;;;;;;;3.45;1.02;;;4.30;99.90;;;;;;4925472;29;20776;-79
2021/12/03 05:39:58;;;;;;;6.93;1.50;;;5.10;99.90;;;;;;4926957;29;20039;-79
2021/12/03 05:42:24;;;;;;;4.05;1.15;;;5.10;99.90;;;;;;4932922;29;20575;-78
2021/12/03 05:44:50;;;;;;;5.25;1.27;;;4.40;99.90;;;;;;4903087;29;20055;-78
2021/12/03 05:47:15;;;;;;;6.72;1.40;;;4.60;99.90;;;;;;4941747;29;20051;-79
2021/12/03 05:49:41;;;;;;;5.38;1.45;;;5.00;99.90;;;;;;4926030;29;20484;-79
2021/12/03 05:52:07;;;;;;;6.70;1.48;;;5.90;99.90;;;;;;4926599;28;20054;-79
2021/12/03 05:54:33;;;;;;;6.70;1.60;;;4.80;99.90;;;;;;4893950;29;20095;-80
2021/12/03 05:56:59;;;;;;;5.38;1.60;;;6.10;99.90;;;;;;4927680;29;20495;-79
2021/12/03 05:59:24;;;;;;;6.65;1.45;;;6.20;99.90;;;;;;4943103;29;20051;-79
2021/12/03 06:01:50;;;;;;;7.15;1.77;;;5.00;99.90;;;;;;4928116;29;20126;-79
2021/12/03 06:04:16;;;;;;;6.20;1.42;;;4.90;99.90;;;;;;4932057;29;20577;-79
2021/12/03 06:06:42;;;;;;;8.10;1.80;;;4.90;99.90;;;;;;4924203;29;20090;-78
2021/12/03 06:09:08;;;;;;;6.03;1.15;;;5.00;99.90;;;;;;4926459;29;20052;-79
2021/12/03 06:11:33;;;;;;;4.30;1.30;;;5.60;99.90;;;;;;4925295;29;20083;-78
2021/12/03 06:13:59;;;;;;;10.73;1.75;;;5.00;99.90;;;;;;4923777;29;20131;-80
2021/12/03 06:16:25;;;;;;;5.63;1.40;;;5.30;99.90;;;;;;4909582;29;20090;-78
2021/12/03 06:18:51;;;;;;;7.80;1.63;;;5.10;99.90;;;;;;4925360;29;20047;-79
2021/12/03 06:21:17;;;;;;;8.63;1.60;;;5.00;99.90;;;;;;4909452;29;20141;-79
2021/12/03 06:23:43;;;;;;;6.63;1.90;;;5.20;99.90;;;;;;4927115;29;20051;-78
2021/12/03 06:26:10;;;;;;;5.05;1.48;;;5.80;99.90;;;;;;4924755;29;20054;-79
2021/12/03 06:28:37;;;;;;;4.40;1.20;;;5.60;99.90;;;;;;4925300;29;20098;-81
2021/12/03 06:31:04;;;;;;;7.13;1.38;;;5.70;99.90;;;;;;4926835;29;20116;-79
2021/12/03 06:33:29;;;;;;;6.28;1.30;;;5.10;99.90;;;;;;4927538;29;20056;-79
2021/12/03 06:35:56;;;;;;;6.43;1.67;;;5.00;99.90;;;;;;4924896;29;20854;-78
2021/12/03 06:38:22;;;;;;;8.32;1.75;;;6.10;99.90;;;;;;4925885;29;20385;-77
2021/12/03 06:40:49;;;;;;;6.68;1.50;;;5.00;99.90;;;;;;4924361;29;20114;-77
2021/12/03 06:43:15;;;;;;;7.30;1.55;;;5.10;99.90;;;;;;4925138;29;20059;-76
2021/12/03 06:45:41;;;;;;;9.13;1.52;;;5.10;99.90;;;;;;4923583;29;20385;-77
2021/12/03 06:48:07;;;;;;;7.05;1.63;;;5.20;99.90;;;;;;4926393;29;20063;-77
2021/12/03 06:50:34;;;;;;;6.32;1.10;;;5.40;99.90;;;;;;4916177;29;20077;-77
2021/12/03 06:53:06;;;;;;;6.15;1.40;;;5.30;99.90;;;;;;4924456;29;20054;-77
2021/12/03 06:55:38;;;;;;;5.65;1.30;;;5.40;99.90;;;;;;4925108;29;20063;-77
2021/12/03 06:58:04;;;;;;;9.82;1.40;;;5.40;99.90;;;;;;4923665;29;20063;-77
2021/12/03 07:00:30;;;;;;;6.82;1.67;;;5.50;99.90;;;;;;4923152;29;20505;-77
2021/12/03 07:02:56;;;;;;;6.85;1.73;;;5.60;99.90;;;;;;4924675;29;20047;-77
2021/12/03 07:05:22;;;;;;;9.32;1.65;;;5.50;99.90;;;;;;4928714;29;20051;-76
2021/12/03 07:07:49;;;;;;;4.60;1.30;;;5.50;99.90;;;;;;4927340;29;20039;-76
2021/12/03 07:10:14;;;;;;;7.45;1.20;;;5.40;99.90;;;;;;4915212;29;20082;-76
2021/12/03 07:12:40;;;;;;;4.07;1.25;;;5.40;99.90;;;;;;4925667;29;20082;-78
2021/12/03 07:15:06;;;;;;;6.95;1.58;;;5.30;99.90;;;;;;4898412;29;20488;-76
2021/12/03 07:17:33;;;;;;;11.57;1.60;;;5.40;99.90;;;;;;4911365;29;20050;-76
2021/12/03 07:20:00;;;;;;;4.75;1.60;;;6.30;99.90;;;;;;4904357;29;20047;-78
2021/12/03 07:22:27;;;;;;;9.82;1.65;;;5.40;99.90;;;;;;4924143;29;20039;-78
2021/12/03 07:24:53;;;;;;;10.02;2.28;;;5.40;99.90;;;;;;4908932;29;20051;-78
2021/12/03 07:27:18;;;;;;;9.82;2.03;;;5.50;99.90;;;;;;4923980;29;20126;-77
2021/12/03 07:29:47;;;;;;;7.15;1.70;;;5.50;99.90;;;;;;4927687;29;21777;-78
2021/12/03 07:32:16;;;;;;;9.50;1.90;;;5.60;99.90;;;;;;4920817;29;20055;-77
2021/12/03 07:34:42;;;;;;;11.00;2.20;;;5.60;99.90;;;;;;4912507;29;20134;-79
2021/12/03 07:37:08;;;;;;;11.20;2.13;;;6.80;99.90;;;;;;4927045;29;20113;-77
2021/12/03 07:39:33;;;;;;;8.35;2.03;;;5.50;99.90;;;;;;4925887;28;20058;-76
2021/12/03 07:41:59;;;;;;;6.07;1.60;;;5.60;99.90;;;;;;4924848;29;20130;-77
2021/12/03 07:44:25;;;;;;;4.03;1.35;;;5.60;99.90;;;;;;4924765;29;20457;-78
2021/12/03 07:46:50;;;;;;;5.68;1.67;;;5.70;99.90;;;;;;4908114;29;20044;-77
2021/12/03 07:49:16;;;;;;;9.25;1.98;;;6.10;99.90;;;;;;4910058;29;20072;-77
2021/12/03 07:51:42;;;;;;;9.15;2.25;;;6.50;99.90;;;;;;4927982;29;20051;-79
2021/12/03 07:54:08;;;;;;;3.63;1.35;;;5.70;99.90;;;;;;4926489;29;20445;-77
2021/12/03 07:56:36;;;;;;;6.75;1.80;;;5.50;99.90;;;;;;4925126;29;20051;-87
2021/12/03 07:59:04;;;;;;;8.35;1.60;;;5.50;99.90;;;;;;4931294;29;20047;-77
2021/12/03 08:01:30;;;;;;;5.18;1.77;;;5.60;99.90;;;;;;4909175;29;20046;-78
2021/12/03 08:03:56;;;;;;;6.32;1.52;;;6.30;99.90;;;;;;4913186;29;20052;-79
2021/12/03 08:06:22;;;;;;;9.82;1.90;;;6.60;99.90;;;;;;4923632;29;20073;-78
2021/12/03 08:08:48;;;;;;;3.88;1.20;;;5.60;99.90;;;;;;4912132;29;20051;-78
2021/12/03 08:11:14;;;;;;;8.93;2.10;;;5.60;99.90;;;;;;4940899;28;20054;-77
2021/12/03 08:13:39;;;;;;;6.65;1.60;;;5.60;99.90;;;;;;4929082;29;20043;-77
2021/12/03 08:16:05;;;;;;;4.18;1.58;;;5.80;99.90;;;;;;4923026;29;20560;-77
2021/12/03 08:18:32;;;;;;;5.57;1.67;;;5.60;99.90;;;;;;4927802;29;20063;-78
2021/12/03 08:20:58;;;;;;;6.07;1.63;;;5.60;99.90;;;;;;4895507;29;20087;-76
2021/12/03 08:23:24;;;;;;;7.65;1.73;;;5.60;99.90;;;;;;4924270;29;20083;-77
2021/12/03 08:25:49;;;;;;;8.07;1.83;;;5.60;99.90;;;;;;4936558;28;20052;-77
2021/12/03 08:28:15;;;;;;;6.07;1.65;;;5.90;99.90;;;;;;4907069;29;20055;-76
2021/12/03 08:30:41;;;;;;;9.02;1.60;;;5.60;99.90;;;;;;4906782;29;20055;-77
2021/12/03 08:33:07;;;;;;;10.80;1.95;;;5.60;99.90;;;;;;4906839;29;20134;-77
2021/12/03 08:35:34;;;;;;;5.70;1.73;;;5.60;99.90;;;;;;4923030;29;20114;-77
2021/12/03 08:38:00;;;;;;;8.55;1.67;;;5.80;99.90;;;;;;4922953;29;20113;-77
2021/12/03 08:40:27;;;;;;;8.48;2.00;;;5.60;99.90;;;;;;4923246;29;20051;-77
2021/12/03 08:42:53;;;;;;;6.97;1.75;;;6.70;99.90;;;;;;4922512;29;20039;-77
2021/12/03 08:45:20;;;;;;;8.02;1.50;;;5.60;99.90;;;;;;4906727;29;20082;-77
2021/12/03 08:47:50;;;;;;;5.13;1.52;;;5.60;99.90;;;;;;4938848;29;20083;-78
2021/12/03 08:50:25;;;;;;;7.53;2.08;;;5.60;99.90;;;;;;4924060;29;20059;-77
2021/12/03 08:53:14;;;;;;;7.85;1.88;;;5.60;99.90;;;;;;4923810;29;20401;-77
2021/12/03 08:55:41;;;;;;;9.25;1.80;;;5.80;99.90;;;;;;4938528;29;20131;-77
2021/12/03 08:58:09;;;;;;;6.32;1.42;;;5.60;99.90;;;;;;4938744;29;20063;-77
2021/12/03 09:00:36;;;;;;;8.38;1.45;;;5.60;99.90;;;;;;4939710;29;20055;-77
2021/12/03 09:03:02;;;;;;;7.97;1.77;;;5.60;99.90;;;;;;4922647;29;20059;-77
2021/12/03 09:05:31;;;;;;;8.80;1.70;;;6.20;99.90;;;;;;4922337;29;20050;-77
2021/12/03 09:07:57;;;;;;;10.27;1.63;;;5.60;99.90;;;;;;4923823;29;20058;-77
2021/12/03 09:10:24;;;;;;;6.50;1.55;;;5.60;99.90;;;;;;4924446;29;20043;-77
2021/12/03 09:12:51;;;;;;;7.95;1.77;;;5.60;99.90;;;;;;4923619;29;20122;-77
2021/12/03 09:15:18;;;;;;;9.55;2.00;;;5.60;99.90;;;;;;4923023;29;20097;-77
2021/12/03 09:18:01;;;;;;;6.70;1.80;;;5.90;99.90;;;;;;4939893;29;20404;-77
2021/12/03 09:20:45;;;;;;;7.85;1.92;;;5.60;99.90;;;;;;4939493;28;20051;-77
2021/12/03 09:26:10;;;;;;;7.88;1.65;;;5.60;99.90;;;;;;4893166;29;20063;-77
2021/12/03 09:28:38;;;;;;;8.45;1.50;;;5.60;99.90;;;;;;4942546;29;20056;-77
2021/12/03 09:31:05;;;;;;;9.38;1.80;;;5.90;99.90;;;;;;4934089;29;20865;-77
2021/12/03 09:33:33;;;;;;;6.40;1.50;;;5.60;99.90;;;;;;4934218;29;20055;-77
2021/12/03 09:36:03;;;;;;;7.63;1.48;;;5.60;99.90;;;;;;4926059;29;20056;-77
2021/12/03 09:38:32;;;;;;;6.00;1.60;;;5.60;99.90;;;;;;4934578;29;20039;-77
2021/12/03 09:41:14;;;;;;;10.35;1.60;;;5.60;99.90;;;;;;4942823;29;20051;-77
2021/12/03 09:43:46;;;;;;;8.65;1.80;;;5.60;99.90;;;;;;4926884;29;20526;-77
2021/12/03 09:48:56;;;;;;;5.90;1.75;;;5.60;99.90;;;;;;4926689;29;20083;-77
2021/12/03 09:51:24;;;;;;;4.15;1.45;;;6.30;99.90;;;;;;4926435;29;20086;-77
2021/12/03 09:56:34;;;;;;;4.22;1.30;;;5.70;99.90;;;;;;4905005;29;20056;-77
2021/12/03 10:01:50;;;;;;;5.88;1.33;;;5.60;99.90;;;;;;4904291;29;20098;-80
2021/12/03 10:15:32;;;;;;;6.25;1.50;;;5.40;99.90;;;;;;4918765;29;20048;-78
2021/12/03 10:21:01;;;;;;;2.85;1.20;;;5.60;99.90;;;;;;4904117;29;20103;-78
2021/12/03 10:45:21;;;;;;;7.53;2.70;;;5.20;99.90;;;;;;4851602;29;20653;-78
2021/12/03 10:48:33;;;;;;;7.45;2.50;;;5.10;99.90;;;;;;4824163;29;20060;-77
2021/12/03 11:34:08;;;;;;;5.38;3.35;;;4.50;99.90;;;;;;4928022;29;20064;-79
2021/12/03 11:39:32;;;;;;;6.95;3.38;;;4.70;99.90;;;;;;4921796;29;20048;-80
2021/12/03 11:59:51;;;;;;;8.25;3.95;;;4.40;99.90;;;;;;4928365;29;20438;-78
2021/12/03 12:19:07;;;;;;;6.95;4.50;;;4.40;99.90;;;;;;4920781;29;20063;-78
2021/12/03 14:34:20;;;;;;;17.67;7.68;;;4.80;99.90;;;;;;4929040;29;20056;-79
2021/12/03 14:41:08;;;;;;;11.75;8.23;;;5.60;99.90;;;;;;4929695;29;20122;-79
2021/12/03 14:43:45;;;;;;;13.90;8.85;;;4.80;99.90;;;;;;4923161;29;20044;-79
2021/12/03 14:57:43;;;;;;;15.02;9.45;;;4.90;99.90;;;;;;4929414;29;20059;-79
2021/12/03 15:00:23;;;;;;;12.52;9.05;;;5.20;99.90;;;;;;4916661;29;20052;-80
2021/12/03 15:25:08;;;;;;;9.43;5.80;;;5.30;99.90;;;;;;4924089;29;20078;-79
2021/12/03 15:27:57;;;;;;;13.50;5.85;;;5.40;99.90;;;;;;4906469;29;20132;-79
2021/12/03 15:35:54;;;;;;;14.82;5.75;;;5.50;99.90;;;;;;4927865;29;20079;-79
2021/12/03 15:38:35;;;;;;;9.02;3.88;;;5.50;99.90;;;;;;4921826;29;20079;-79
2021/12/03 16:05:34;;;;;;;11.30;4.22;;;6.00;99.90;;;;;;4910055;29;20051;-77
2021/12/03 16:10:25;;;;;;;15.20;3.90;;;6.50;99.90;;;;;;4923914;29;20062;-79
2021/12/03 16:16:31;;;;;;;10.05;4.30;;;6.10;99.90;;;;;;4926332;29;20157;-78
2021/12/03 16:21:27;;;;;;;13.65;4.72;;;6.30;99.90;;;;;;4925971;29;20450;-78
2021/12/03 16:27:13;;;;;;;14.25;7.82;;;6.20;99.90;;;;;;4912510;29;20086;-78
2021/12/03 16:51:30;;;;;;;11.50;9.00;;;5.80;99.90;;;;;;4935722;29;20418;-78
2021/12/03 16:54:08;;;;;;;13.52;9.10;;;6.70;99.90;;;;;;4927563;29;20090;-77
2021/12/03 16:56:35;;;;;;;17.05;10.35;;;5.80;99.90;;;;;;4926632;29;20074;-78
2021/12/03 16:59:03;;;;;;;14.55;9.95;;;5.80;99.90;;;;;;4927478;29;20052;-78
2021/12/03 17:01:41;;;;;;;15.07;9.90;;;5.80;99.90;;;;;;4933156;29;20518;-78
2021/12/03 17:14:52;;;;;;;9.25;6.18;;;6.10;99.90;;;;;;4926000;29;20079;-78
2021/12/03 17:57:50;;;;;;;17.07;10.57;;;6.00;99.90;;;;;;4912964;29;20054;-78
2021/12/03 18:00:26;;;;;;;15.82;10.52;;;5.90;99.90;;;;;;4926737;29;20075;-78
2021/12/03 18:02:56;;;;;;;16.02;10.70;;;5.90;99.90;;;;;;4942784;29;20055;-78
2021/12/03 18:05:31;;;;;;;16.20;10.48;;;5.90;99.90;;;;;;4910805;29;20055;-78
2021/12/03 18:53:20;;;;;;;17.67;11.43;;;5.60;99.90;;;;;;4926362;29;20066;-80
2021/12/03 18:55:57;;;;;;;15.65;11.63;;;5.60;99.90;;;;;;4924275;29;20094;-81
2021/12/03 18:58:26;;;;;;;17.05;11.13;;;5.60;99.90;;;;;;4926302;29;20060;-81
2021/12/03 19:00:55;;;;;;;16.50;11.73;;;5.50;99.90;;;;;;4925480;29;20507;-81
2021/12/03 19:03:38;;;;;;;17.77;12.10;;;5.60;99.90;;;;;;4941602;29;20056;-80
2021/12/03 19:06:18;;;;;;;16.17;11.55;;;6.40;99.90;;;;;;4926538;29;20055;-81
2021/12/03 19:11:24;;;;;;;17.63;11.85;;;6.40;99.90;;;;;;4925850;29;20082;-78
2021/12/03 19:13:51;;;;;;;20.15;13.88;;;5.60;99.90;;;;;;4924776;29;20055;-78
2021/12/03 19:16:21;;;;;;;17.15;12.63;;;5.50;99.90;;;;;;4916189;29;20050;-78
2021/12/03 19:18:51;;;;;;;19.92;12.88;;;5.60;99.90;;;;;;4924982;29;20499;-78
2021/12/03 19:21:22;;;;;;;19.23;13.43;;;6.70;99.90;;;;;;4924754;29;20213;-78
2021/12/03 19:23:51;;;;;;;22.38;14.00;;;5.60;99.90;;;;;;4923139;29;20150;-78
2021/12/03 19:26:19;;;;;;;20.90;14.60;;;5.60;99.90;;;;;;4924264;29;20056;-77
2021/12/03 19:28:45;;;;;;;20.58;14.25;;;5.50;99.90;;;;;;4931599;29;20661;-78
2021/12/03 19:31:11;;;;;;;20.17;14.32;;;5.50;99.90;;;;;;4925191;29;20154;-78
2021/12/03 19:33:37;;;;;;;19.98;14.00;;;6.30;99.90;;;;;;4925403;29;20138;-77
2021/12/03 19:36:04;;;;;;;22.33;14.90;;;5.50;99.90;;;;;;4931310;29;20067;-78
2021/12/03 19:38:30;;;;;;;22.05;15.00;;;5.50;99.90;;;;;;4925414;29;20389;-79
2021/12/03 19:41:03;;;;;;;23.55;16.08;;;6.50;99.90;;;;;;4924143;29;20132;-79
2021/12/03 19:43:37;;;;;;;25.75;16.30;;;5.70;99.90;;;;;;4924281;29;20134;-79
2021/12/03 19:46:05;;;;;;;20.70;14.65;;;5.50;99.90;;;;;;4931647;29;20051;-79
2021/12/03 19:48:37;;;;;;;23.70;15.82;;;5.50;99.90;;;;;;4924282;29;20536;-80
2021/12/03 19:51:11;;;;;;;25.60;17.02;;;5.50;99.90;;;;;;4924776;29;20051;-79
2021/12/03 19:53:44;;;;;;;23.42;16.23;;;5.50;99.90;;;;;;4916727;29;20448;-79
2021/12/03 19:56:10;;;;;;;22.25;16.73;;;5.50;99.90;;;;;;4923685;29;20145;-80
2021/12/03 19:58:35;;;;;;;24.88;17.38;;;5.40;99.90;;;;;;4924074;29;20103;-80
2021/12/03 20:01:01;;;;;;;25.20;17.48;;;5.70;99.90;;;;;;4932242;29;20051;-80
2021/12/03 20:03:27;;;;;;;29.00;18.02;;;5.40;99.90;;;;;;4924289;29;20055;-80
2021/12/03 20:05:53;;;;;;;28.08;17.85;;;5.70;99.90;;;;;;4923416;29;20047;-80
2021/12/03 20:08:21;;;;;;;27.90;17.60;;;5.50;99.90;;;;;;4926410;29;20055;-79
2021/12/03 20:10:49;;;;;;;25.13;17.13;;;5.50;99.90;;;;;;4925397;29;20035;-79
2021/12/03 20:13:15;;;;;;;27.75;18.50;;;5.50;99.90;;;;;;4894227;29;20063;-80
2021/12/03 20:16:21;;;;;;;26.63;18.23;;;5.40;99.90;;;;;;4922087;29;20063;-79
2021/12/03 20:18:50;;;;;;;26.85;18.42;;;5.40;99.90;;;;;;4924295;29;20106;-80
2021/12/03 20:21:17;;;;;;;28.15;17.52;;;5.40;99.90;;;;;;4915970;29;20048;-79
2021/12/03 20:26:28;;;;;;;28.73;18.80;;;5.50;99.90;;;;;;4910697;29;20055;-79
2021/12/03 20:29:16;;;;;;;27.90;18.58;;;5.50;99.90;;;;;;4926395;29;20054;-79
2021/12/03 20:31:46;;;;;;;27.75;18.67;;;5.50;99.90;;;;;;4923782;28;20047;-81
2021/12/03 20:37:29;;;;;;;28.17;19.40;;;6.20;99.90;;;;;;4901040;29;20048;-79
2021/12/03 20:39:56;;;;;;;28.75;18.73;;;6.40;99.90;;;;;;4908691;29;20040;-79
2021/12/03 20:42:30;;;;;;;30.98;19.70;;;5.60;99.90;;;;;;4910198;29;20067;-79
2021/12/03 20:45:19;;;;;;;29.25;19.05;;;5.50;99.90;;;;;;4904605;29;20138;-79